createdAt,value
2017-11-30T00:00:01.773Z,97.24
2017-11-30T00:02:36.655Z,97.07
2017-11-30T00:05:11.482Z,97.20
2017-11-30T00:07:46.391Z,97.23
2017-11-30T00:10:21.101Z,97.10
2017-11-30T00:12:55.894Z,97.05
2017-11-30T00:15:30.513Z,97.07
2017-11-30T00:18:05.574Z,97.00
2017-11-30T00:20:40.318Z,96.77
2017-11-30T00:23:15.057Z,96.57
2017-11-30T00:25:49.326Z,96.48
2017-11-30T00:28:24.309Z,96.43
2017-11-30T00:30:59.031Z,96.11
2017-11-30T00:33:33.757Z,95.94
2017-11-30T00:36:08.641Z,95.94
2017-11-30T00:38:43.469Z,95.85
2017-11-30T00:41:18.173Z,95.74
2017-11-30T00:43:52.551Z,95.83
2017-11-30T00:46:27.301Z,95.79
2017-11-30T00:49:02.338Z,95.98
2017-11-30T00:51:37.585Z,95.90
2017-11-30T00:54:11.979Z,95.83
2017-11-30T00:56:47.069Z,95.70
2017-11-30T00:59:21.927Z,95.59
2017-11-30T01:01:56.748Z,95.60
2017-11-30T01:04:31.633Z,95.81
2017-11-30T01:07:06.306Z,96.26
2017-11-30T01:09:41.210Z,96.60
2017-11-30T01:12:15.817Z,96.38
2017-11-30T01:14:50.541Z,96.22
2017-11-30T01:17:24.930Z,96.20
2017-11-30T01:19:59.922Z,96.34
2017-11-30T01:22:34.727Z,96.17
2017-11-30T01:25:09.525Z,96.20
2017-11-30T01:27:44.554Z,96.34
2017-11-30T01:30:19.514Z,96.30
2017-11-30T01:32:54.282Z,96.19
2017-11-30T01:35:29.014Z,96.05
2017-11-30T01:38:03.942Z,95.98
2017-11-30T01:40:39.098Z,95.73
2017-11-30T01:43:14.002Z,95.47
2017-11-30T01:45:49.151Z,95.43
2017-11-30T01:48:24.055Z,95.42
2017-11-30T01:50:58.791Z,95.15
2017-11-30T01:53:33.602Z,95.22
2017-11-30T01:56:08.359Z,95.21
2017-11-30T01:58:43.443Z,95.15
2017-11-30T02:01:18.298Z,94.85
2017-11-30T02:03:53.049Z,94.57
2017-11-30T02:06:27.880Z,94.64
2017-11-30T02:09:02.930Z,94.79
2017-11-30T02:11:37.886Z,94.67
2017-11-30T02:14:12.585Z,94.89
2017-11-30T02:16:47.449Z,94.94
2017-11-30T02:19:21.630Z,94.98
2017-11-30T02:21:56.377Z,94.98
2017-11-30T02:24:31.191Z,95.05
2017-11-30T02:27:06.350Z,95.32
2017-11-30T02:29:40.847Z,95.36
2017-11-30T02:32:15.680Z,95.43
2017-11-30T02:34:50.561Z,95.62
2017-11-30T02:37:25.087Z,95.88
2017-11-30T02:40:00.081Z,96.03
2017-11-30T02:42:34.863Z,95.76
2017-11-30T02:45:09.437Z,95.76
2017-11-30T02:47:44.075Z,95.70
2017-11-30T02:50:19.229Z,95.70
2017-11-30T02:52:53.726Z,95.79
2017-11-30T02:55:28.836Z,95.74
2017-11-30T02:58:03.465Z,95.90
2017-11-30T03:00:38.130Z,96.15
2017-11-30T03:03:12.876Z,96.13
2017-11-30T03:05:47.388Z,96.01
2017-11-30T03:08:22.165Z,96.15
2017-11-30T03:10:56.720Z,96.33
2017-11-30T03:13:31.729Z,96.16
2017-11-30T03:16:06.270Z,96.17
2017-11-30T03:18:40.982Z,95.99
2017-11-30T03:21:16.185Z,96.14
2017-11-30T03:23:50.578Z,96.34
2017-11-30T03:26:25.551Z,96.42
2017-11-30T03:29:00.569Z,96.58
2017-11-30T03:31:35.470Z,96.40
2017-11-30T03:34:10.326Z,96.23
2017-11-30T03:36:45.055Z,96.20
2017-11-30T03:39:19.553Z,96.16
2017-11-30T03:41:54.486Z,96.17
2017-11-30T03:44:29.366Z,96.07
2017-11-30T03:47:04.117Z,96.07
2017-11-30T03:49:38.642Z,96.22
2017-11-30T03:52:13.314Z,96.22
2017-11-30T03:54:48.134Z,96.13
2017-11-30T03:57:22.802Z,95.93
2017-11-30T03:59:57.777Z,95.92
2017-11-30T04:02:32.544Z,95.69
2017-11-30T04:05:07.350Z,95.78
2017-11-30T04:07:42.285Z,95.84
2017-11-30T04:10:17.037Z,95.75
2017-11-30T04:12:51.735Z,95.79
2017-11-30T04:15:26.591Z,95.65
2017-11-30T04:18:01.320Z,95.90
2017-11-30T04:20:36.357Z,95.97
2017-11-30T04:23:11.114Z,96.10
2017-11-30T04:25:45.938Z,96.42
2017-11-30T04:28:20.912Z,96.67
2017-11-30T04:30:55.772Z,96.43
2017-11-30T04:33:30.603Z,96.29
2017-11-30T04:36:05.325Z,96.17
2017-11-30T04:38:40.051Z,96.15
2017-11-30T04:41:14.817Z,96.28
2017-11-30T04:43:49.757Z,96.18
2017-11-30T04:46:24.254Z,96.35
2017-11-30T04:48:59.002Z,96.57
2017-11-30T04:51:33.633Z,96.58
2017-11-30T04:54:08.401Z,96.43
2017-11-30T04:56:42.986Z,96.65
2017-11-30T04:59:17.689Z,96.77
2017-11-30T05:01:52.655Z,97.03
2017-11-30T05:04:27.417Z,97.13
2017-11-30T05:07:01.871Z,97.33
2017-11-30T05:09:36.569Z,97.46
2017-11-30T05:12:11.566Z,97.40
2017-11-30T05:14:46.514Z,97.27
2017-11-30T05:17:21.205Z,97.31
2017-11-30T05:19:56.182Z,97.41
2017-11-30T05:22:30.995Z,97.53
2017-11-30T05:25:05.800Z,97.60
2017-11-30T05:27:40.242Z,97.91
2017-11-30T05:30:15.211Z,97.94
2017-11-30T05:32:49.914Z,97.78
2017-11-30T05:35:24.806Z,97.71
2017-11-30T05:37:59.534Z,97.59
2017-11-30T05:40:34.301Z,97.50
2017-11-30T05:43:09.114Z,97.46
2017-11-30T05:45:43.686Z,97.49
2017-11-30T05:48:18.545Z,97.38
2017-11-30T05:50:53.312Z,97.50
2017-11-30T05:53:27.958Z,97.56
2017-11-30T05:56:02.761Z,97.61
2017-11-30T05:58:37.394Z,97.73
2017-11-30T06:01:12.214Z,97.86
2017-11-30T06:03:47.166Z,97.80
2017-11-30T06:06:21.999Z,97.94
2017-11-30T06:08:57.002Z,98.22
2017-11-30T06:11:31.838Z,98.53
2017-11-30T06:14:06.677Z,98.46
2017-11-30T06:16:41.630Z,98.03
2017-11-30T06:19:16.204Z,97.83
2017-11-30T06:21:51.371Z,97.79
2017-11-30T06:24:26.389Z,98.01
2017-11-30T06:27:01.498Z,98.26
2017-11-30T06:29:36.359Z,98.35
2017-11-30T06:32:11.195Z,98.52
2017-11-30T06:34:46.080Z,98.90
2017-11-30T06:37:21.174Z,98.65
2017-11-30T06:39:55.841Z,98.20
2017-11-30T06:42:30.638Z,97.82
2017-11-30T06:45:05.422Z,97.89
2017-11-30T06:47:40.201Z,97.84
2017-11-30T06:50:15.052Z,97.81
2017-11-30T06:52:49.790Z,97.79
2017-11-30T06:55:24.717Z,97.73
2017-11-30T06:57:59.454Z,97.83
2017-11-30T07:00:33.877Z,97.75
2017-11-30T07:03:08.606Z,97.66
2017-11-30T07:05:43.442Z,97.57
2017-11-30T07:08:18.128Z,97.72
2017-11-30T07:10:52.978Z,97.64
2017-11-30T07:13:27.979Z,97.53
2017-11-30T07:16:02.758Z,97.34
2017-11-30T07:18:37.587Z,97.39
2017-11-30T07:21:12.386Z,97.48
2017-11-30T07:23:47.157Z,97.49
2017-11-30T07:26:22.016Z,97.54
2017-11-30T07:28:56.447Z,97.46
2017-11-30T07:31:31.442Z,97.40
2017-11-30T07:34:06.196Z,97.65
2017-11-30T07:36:40.977Z,97.96
2017-11-30T07:39:15.712Z,97.70
2017-11-30T07:41:50.410Z,97.58
2017-11-30T07:44:25.037Z,97.62
2017-11-30T07:46:59.938Z,97.49
2017-11-30T07:49:34.843Z,97.58
2017-11-30T07:52:09.688Z,97.48
2017-11-30T07:54:44.278Z,97.40
2017-11-30T07:57:19.085Z,97.35
2017-11-30T07:59:53.914Z,97.21
2017-11-30T08:02:28.657Z,97.35
2017-11-30T08:05:03.369Z,97.58
2017-11-30T08:07:38.191Z,97.30
2017-11-30T08:10:13.080Z,97.08
2017-11-30T08:12:47.698Z,97.19
2017-11-30T08:15:22.427Z,97.13
2017-11-30T08:17:57.015Z,96.78
2017-11-30T08:20:31.766Z,96.75
2017-11-30T08:23:06.632Z,96.74
2017-11-30T08:25:41.141Z,96.78
2017-11-30T08:28:16.267Z,96.59
2017-11-30T08:30:51.170Z,96.70
2017-11-30T08:33:26.043Z,97.01
2017-11-30T08:36:00.754Z,97.10
2017-11-30T08:38:35.603Z,97.18
2017-11-30T08:41:10.440Z,97.33
2017-11-30T08:43:45.315Z,97.40
2017-11-30T08:46:20.165Z,97.22
2017-11-30T08:48:54.917Z,96.92
2017-11-30T08:51:29.827Z,96.76
2017-11-30T08:54:04.167Z,96.77
2017-11-30T08:56:38.852Z,96.85
2017-11-30T08:59:13.798Z,96.95
2017-11-30T09:01:48.418Z,97.13
2017-11-30T09:04:23.383Z,96.77
2017-11-30T09:06:58.162Z,96.83
2017-11-30T09:09:32.965Z,96.83
2017-11-30T09:12:07.407Z,96.86
2017-11-30T09:14:42.294Z,96.68
2017-11-30T09:17:17.164Z,96.44
2017-11-30T09:19:51.653Z,96.27
2017-11-30T09:22:26.713Z,96.05
2017-11-30T09:25:01.395Z,95.98
2017-11-30T09:27:36.245Z,95.95
2017-11-30T09:30:10.942Z,96.15
2017-11-30T09:32:45.898Z,96.22
2017-11-30T09:35:20.581Z,96.15
2017-11-30T09:37:55.455Z,96.02
2017-11-30T09:40:30.326Z,95.88
2017-11-30T09:43:05.210Z,95.83
2017-11-30T09:45:40.242Z,95.97
2017-11-30T09:48:14.990Z,96.25
2017-11-30T09:50:50.019Z,96.42
2017-11-30T09:53:25.171Z,96.10
2017-11-30T09:56:00.071Z,95.74
2017-11-30T09:58:35.010Z,95.61
2017-11-30T10:01:09.856Z,95.38
2017-11-30T10:03:44.793Z,95.22
2017-11-30T10:06:19.711Z,95.47
2017-11-30T10:08:54.574Z,95.47
2017-11-30T10:11:29.226Z,95.57
2017-11-30T10:14:04.224Z,95.57
2017-11-30T10:16:39.146Z,95.33
2017-11-30T10:19:14.301Z,95.30
2017-11-30T10:21:49.217Z,95.13
2017-11-30T10:24:23.870Z,95.23
2017-11-30T10:26:58.893Z,95.12
2017-11-30T10:29:33.697Z,94.76
2017-11-30T10:32:08.353Z,94.64
2017-11-30T10:34:42.927Z,94.62
2017-11-30T10:37:17.635Z,94.62
2017-11-30T10:39:52.256Z,94.50
2017-11-30T10:42:26.870Z,94.42
2017-11-30T10:45:01.773Z,94.27
2017-11-30T10:47:36.487Z,94.35
2017-11-30T10:50:11.334Z,94.28
2017-11-30T10:52:46.183Z,94.30
2017-11-30T10:55:21.093Z,94.50
2017-11-30T10:57:55.839Z,94.51
2017-11-30T11:00:30.774Z,94.31
2017-11-30T11:03:05.618Z,94.52
2017-11-30T11:05:40.563Z,94.56
2017-11-30T11:08:15.270Z,94.51
2017-11-30T11:10:50.075Z,94.90
2017-11-30T11:13:25.025Z,95.14
2017-11-30T11:15:59.860Z,95.11
2017-11-30T11:18:34.693Z,95.36
2017-11-30T11:21:09.418Z,95.69
2017-11-30T11:23:44.488Z,95.47
2017-11-30T11:26:19.191Z,95.17
2017-11-30T11:28:53.730Z,94.48
2017-11-30T11:31:28.626Z,94.19
2017-11-30T11:34:03.569Z,93.61
2017-11-30T11:36:38.515Z,92.97
2017-11-30T11:39:13.350Z,92.68
2017-11-30T11:41:48.353Z,93.05
2017-11-30T11:44:23.265Z,93.03
2017-11-30T11:46:58.024Z,93.23
2017-11-30T11:49:32.929Z,92.88
2017-11-30T11:52:07.858Z,92.69
2017-11-30T11:54:42.670Z,92.46
2017-11-30T11:57:17.478Z,92.67
2017-11-30T11:59:52.339Z,92.80
2017-11-30T12:02:26.779Z,92.58
2017-11-30T12:05:01.573Z,92.96
2017-11-30T12:07:37.264Z,92.99
2017-11-30T12:10:12.261Z,93.22
2017-11-30T12:12:47.426Z,93.14
2017-11-30T12:15:22.478Z,93.12
2017-11-30T12:17:57.451Z,93.39
2017-11-30T12:20:32.386Z,93.29
2017-11-30T12:23:07.178Z,93.23
2017-11-30T12:25:42.047Z,93.28
2017-11-30T12:28:16.794Z,93.21
2017-11-30T12:30:51.670Z,93.16
2017-11-30T12:33:26.213Z,93.25
2017-11-30T12:36:00.861Z,93.63
2017-11-30T12:38:35.679Z,93.55
2017-11-30T12:41:10.301Z,93.43
2017-11-30T12:43:45.012Z,93.62
2017-11-30T12:46:19.740Z,94.09
2017-11-30T12:48:54.589Z,94.22
2017-11-30T12:51:29.322Z,94.52
2017-11-30T12:54:04.093Z,94.65
2017-11-30T12:56:38.805Z,94.58
2017-11-30T12:59:13.268Z,94.71
2017-11-30T13:01:48.002Z,94.70
2017-11-30T13:04:22.989Z,94.46
2017-11-30T13:06:57.688Z,94.43
2017-11-30T13:09:32.517Z,94.50
2017-11-30T13:12:07.476Z,94.37
2017-11-30T13:14:42.186Z,94.61
2017-11-30T13:17:16.718Z,95.06
2017-11-30T13:19:51.649Z,95.16
2017-11-30T13:22:26.412Z,95.28
2017-11-30T13:25:01.097Z,95.24
2017-11-30T13:27:36.136Z,95.04
2017-11-30T13:30:10.876Z,94.89
2017-11-30T13:32:45.807Z,94.95
2017-11-30T13:35:20.563Z,94.99
2017-11-30T13:37:55.552Z,95.17
2017-11-30T13:40:30.233Z,95.72
2017-11-30T13:43:05.029Z,96.36
2017-11-30T13:45:39.836Z,96.67
2017-11-30T13:48:14.941Z,96.94
2017-11-30T13:50:49.746Z,96.84
2017-11-30T13:53:24.612Z,96.66
2017-11-30T13:55:59.544Z,96.84
2017-11-30T13:58:34.569Z,96.46
2017-11-30T14:01:09.876Z,95.91
2017-11-30T14:03:44.703Z,95.45
2017-11-30T14:06:19.317Z,95.47
2017-11-30T14:08:54.212Z,95.65
2017-11-30T14:11:29.085Z,96.07
2017-11-30T14:14:04.174Z,96.46
2017-11-30T14:16:38.953Z,96.73
2017-11-30T14:19:13.674Z,96.96
2017-11-30T14:21:48.460Z,97.25
2017-11-30T14:24:23.408Z,97.47
2017-11-30T14:26:58.268Z,97.64
2017-11-30T14:29:33.209Z,97.67
2017-11-30T14:32:07.910Z,99.11
2017-11-30T14:34:42.868Z,100.00
2017-11-30T14:37:17.917Z,100.00
2017-11-30T14:39:52.902Z,98.10
2017-11-30T14:42:27.849Z,94.86
2017-11-30T14:45:03.090Z,90.21
2017-11-30T14:47:37.830Z,88.53
2017-11-30T14:50:12.812Z,87.76
2017-11-30T14:52:47.532Z,86.82
2017-11-30T14:55:22.572Z,86.30
2017-11-30T14:57:57.378Z,86.78
2017-11-30T15:00:32.644Z,85.56
2017-11-30T15:03:07.364Z,82.99
2017-11-30T15:05:42.424Z,79.01
2017-11-30T15:08:17.400Z,76.97
2017-11-30T15:10:52.416Z,77.82
2017-11-30T15:13:27.289Z,77.77
2017-11-30T15:16:02.228Z,78.75
2017-11-30T15:18:38.862Z,80.31
2017-11-30T15:21:14.244Z,81.06
2017-11-30T15:23:49.161Z,79.39
2017-11-30T15:26:24.200Z,79.39
2017-11-30T15:28:59.022Z,81.65
2017-11-30T15:31:33.619Z,84.63
2017-11-30T15:34:08.529Z,86.95
2017-11-30T15:36:46.424Z,88.63
2017-11-30T15:39:21.320Z,90.09
2017-11-30T15:41:56.344Z,90.97
2017-11-30T15:44:31.384Z,91.49
2017-11-30T15:47:06.226Z,91.87
2017-11-30T15:49:41.109Z,92.05
2017-11-30T15:52:15.960Z,92.53
2017-11-30T15:54:50.757Z,93.04
2017-11-30T15:57:25.612Z,93.23
2017-11-30T16:00:00.409Z,93.30
2017-11-30T16:02:35.236Z,93.51
2017-11-30T16:05:10.170Z,93.60
2017-11-30T16:07:44.984Z,94.23
2017-11-30T16:10:19.952Z,94.74
2017-11-30T16:12:54.846Z,95.31
2017-11-30T16:15:29.671Z,95.53
2017-11-30T16:18:04.504Z,95.71
2017-11-30T16:20:39.347Z,95.97
2017-11-30T16:23:14.256Z,95.97
2017-11-30T16:25:49.338Z,95.80
2017-11-30T16:28:24.040Z,95.72
2017-11-30T16:30:59.199Z,95.67
2017-11-30T16:33:33.484Z,95.61
2017-11-30T16:36:08.389Z,95.53
2017-11-30T16:38:43.376Z,95.74
2017-11-30T16:41:18.116Z,95.85
2017-11-30T16:43:52.928Z,95.76
2017-11-30T16:46:27.860Z,95.91
2017-11-30T16:49:02.788Z,96.05
2017-11-30T16:51:37.528Z,96.03
2017-11-30T16:54:12.425Z,95.99
2017-11-30T16:56:47.248Z,95.84
2017-11-30T16:59:22.029Z,95.66
2017-11-30T17:01:56.665Z,95.47
2017-11-30T17:04:31.689Z,95.49
2017-11-30T17:07:06.430Z,95.67
2017-11-30T17:09:41.249Z,95.89
2017-11-30T17:12:16.078Z,96.05
2017-11-30T17:14:50.876Z,95.79
2017-11-30T17:17:25.608Z,95.55
2017-11-30T17:20:00.249Z,95.42
2017-11-30T17:22:35.116Z,95.37
2017-11-30T17:25:09.789Z,95.46
2017-11-30T17:27:44.614Z,95.89
2017-11-30T17:30:19.310Z,96.26
2017-11-30T17:32:54.116Z,96.45
2017-11-30T17:35:32.046Z,96.34
2017-11-30T17:38:06.787Z,96.26
2017-11-30T17:40:41.433Z,96.09
2017-11-30T17:43:16.604Z,95.88
2017-11-30T17:45:51.313Z,95.86
2017-11-30T17:48:26.366Z,95.81
2017-11-30T17:51:01.072Z,95.89
2017-11-30T17:53:36.053Z,95.87
2017-11-30T17:56:10.902Z,95.80
2017-11-30T17:58:45.575Z,95.86
2017-11-30T18:01:20.536Z,95.96
2017-11-30T18:03:55.309Z,95.88
2017-11-30T18:06:30.161Z,95.87
2017-11-30T18:09:04.579Z,95.91
2017-11-30T18:11:39.641Z,96.06
2017-11-30T18:14:14.572Z,96.24
2017-11-30T18:16:49.816Z,96.46
2017-11-30T18:19:24.657Z,96.55
2017-11-30T18:21:59.756Z,96.63
2017-11-30T18:24:34.808Z,96.72
2017-11-30T18:27:09.912Z,96.73
2017-11-30T18:29:45.064Z,96.68
2017-11-30T18:32:19.802Z,96.59
2017-11-30T18:34:54.456Z,96.63
2017-11-30T18:37:29.192Z,96.59
2017-11-30T18:40:03.931Z,96.57
2017-11-30T18:42:38.931Z,96.51
2017-11-30T18:45:14.096Z,96.45
2017-11-30T18:47:48.894Z,96.31
2017-11-30T18:50:24.085Z,96.13
2017-11-30T18:52:58.804Z,95.99
2017-11-30T18:55:33.643Z,95.98
2017-11-30T18:58:08.681Z,96.02
2017-11-30T19:00:43.632Z,96.26
2017-11-30T19:03:18.428Z,96.51
2017-11-30T19:05:53.163Z,96.86
2017-11-30T19:08:27.795Z,97.12
2017-11-30T19:11:02.849Z,97.36
2017-11-30T19:13:37.619Z,97.45
2017-11-30T19:16:12.515Z,97.30
2017-11-30T19:18:47.409Z,97.30
2017-11-30T19:21:22.072Z,97.09
2017-11-30T19:23:56.864Z,96.78
2017-11-30T19:26:31.901Z,96.53
2017-11-30T19:29:06.961Z,96.57
2017-11-30T19:31:41.788Z,96.79
2017-11-30T19:34:16.637Z,96.88
2017-11-30T19:36:52.648Z,96.97
2017-11-30T19:39:27.988Z,97.00
2017-11-30T19:42:02.780Z,96.91
2017-11-30T19:44:37.946Z,96.80
2017-11-30T19:47:12.849Z,96.71
2017-11-30T19:49:47.652Z,96.67
2017-11-30T19:52:22.580Z,96.61
2017-11-30T19:54:57.517Z,96.62
2017-11-30T19:57:32.524Z,96.63
2017-11-30T20:00:07.265Z,96.68
2017-11-30T20:02:41.992Z,96.68
2017-11-30T20:05:16.861Z,96.54
2017-11-30T20:07:51.742Z,96.46
2017-11-30T20:10:26.576Z,96.39
2017-11-30T20:13:01.528Z,96.29
2017-11-30T20:15:36.359Z,96.20
2017-11-30T20:18:10.925Z,96.22
2017-11-30T20:20:45.820Z,96.19
2017-11-30T20:23:20.764Z,96.20
2017-11-30T20:25:55.696Z,96.10
2017-11-30T20:28:30.560Z,96.16
2017-11-30T20:31:05.334Z,96.29
2017-11-30T20:33:40.079Z,96.43
2017-11-30T20:36:14.913Z,96.55
2017-11-30T20:38:49.516Z,96.53
2017-11-30T20:41:24.544Z,96.71
2017-11-30T20:43:59.372Z,96.95
2017-11-30T20:46:34.423Z,97.08
2017-11-30T20:49:09.234Z,97.17
2017-11-30T20:51:44.176Z,97.36
2017-11-30T20:54:19.116Z,97.50
2017-11-30T20:56:53.936Z,97.57
2017-11-30T20:59:28.767Z,97.52
2017-11-30T21:02:03.866Z,97.38
2017-11-30T21:04:39.405Z,97.16
2017-11-30T21:07:14.401Z,96.94
2017-11-30T21:09:49.177Z,96.73
2017-11-30T21:12:23.984Z,96.52
2017-11-30T21:14:58.889Z,96.29
2017-11-30T21:17:33.729Z,96.10
2017-11-30T21:20:08.432Z,95.86
2017-11-30T21:22:43.388Z,95.62
2017-11-30T21:25:18.145Z,95.47
2017-11-30T21:27:53.061Z,95.45
2017-11-30T21:30:27.441Z,95.49
2017-11-30T21:33:02.324Z,95.53
2017-11-30T21:35:37.133Z,95.48
2017-11-30T21:38:11.980Z,95.39
2017-11-30T21:40:46.812Z,95.29
2017-11-30T21:43:21.824Z,95.23
2017-11-30T21:45:56.499Z,95.32
2017-11-30T21:48:31.324Z,95.43
2017-11-30T21:51:06.179Z,95.46
2017-11-30T21:53:41.076Z,95.55
2017-11-30T21:56:15.888Z,95.50
2017-11-30T21:58:50.616Z,95.46
2017-11-30T22:01:25.538Z,95.49
2017-11-30T22:04:00.397Z,95.61
2017-11-30T22:06:35.221Z,95.66
2017-11-30T22:09:09.933Z,95.57
2017-11-30T22:11:44.772Z,95.75
2017-11-30T22:14:19.516Z,95.85
2017-11-30T22:16:54.436Z,95.94
2017-11-30T22:19:29.237Z,95.99
2017-11-30T22:22:04.293Z,95.86
2017-11-30T22:24:39.313Z,95.87
2017-11-30T22:27:14.339Z,95.94
2017-11-30T22:29:49.144Z,96.05
2017-11-30T22:32:23.774Z,96.14
2017-11-30T22:34:58.714Z,96.39
2017-11-30T22:37:33.102Z,96.58
2017-11-30T22:40:08.432Z,96.82
2017-11-30T22:42:43.297Z,96.91
2017-11-30T22:45:18.014Z,96.89
2017-11-30T22:47:52.912Z,96.83
2017-11-30T22:50:27.925Z,96.71
2017-11-30T22:53:02.673Z,96.51
2017-11-30T22:55:37.829Z,96.40
2017-11-30T22:58:12.881Z,96.26
2017-11-30T23:00:47.908Z,96.09
2017-11-30T23:03:22.792Z,96.09
2017-11-30T23:05:57.215Z,96.24
2017-11-30T23:08:32.097Z,96.13
2017-11-30T23:11:07.002Z,96.36
2017-11-30T23:13:42.280Z,96.57
2017-11-30T23:16:17.190Z,96.78
2017-11-30T23:18:51.889Z,96.88
2017-11-30T23:21:27.227Z,97.00
2017-11-30T23:24:01.748Z,97.13
2017-11-30T23:26:36.810Z,97.16
2017-11-30T23:29:11.528Z,97.37
2017-11-30T23:31:46.589Z,97.48
2017-11-30T23:34:21.223Z,97.60
2017-11-30T23:36:55.924Z,97.48
2017-11-30T23:39:30.964Z,97.63
2017-11-30T23:42:05.585Z,97.63
2017-11-30T23:44:40.548Z,97.69
2017-11-30T23:47:15.204Z,97.68
2017-11-30T23:49:50.008Z,97.63
2017-11-30T23:52:24.713Z,97.49
2017-11-30T23:54:59.660Z,97.27
2017-11-30T23:57:34.375Z,97.28
